Terminal Aerodrome Forecast
Issued by NWS

Home | Current Version | Previous Version | Text Only | Print | Product List | Glossary On
Versions: 1 2 3 4 5 6 7 8 9 10 11 12 13
000
FTUS42 KMLB 220527
TAFISM
TAF
KISM 220527Z 2206/2306 04003KT P6SM FEW015
     FM221500 07007KT P6SM FEW030
     FM221900 07011KT P6SM SCT045
     FM230100 09006KT P6SM FEW040=

USA.gov is the U.S. government's official web portal to all federal, state and local government web resources and services.